Time;durP1;ratioP1;P1;durP2;ratioP2;P2;SDS_P1;SDS_P2;PMS_P1;PMS_P2;Temp;Humidity;BMP_temperature;BMP_pressure;BME280_temperature;BME280_humidity;BME280_pressure;Samples;Min_cycle;Max_cycle;Signal;HPM_P1;HPM_P2
2022/10/06 00:00:46;;;;;;;4.00;1.33;;;;;;;17.57;71.35;100974.94;5029924;28;20222;-79
2022/10/06 00:03:12;;;;;;;2.40;1.70;;;;;;;17.57;71.33;100980.34;5023986;28;20231;-79
2022/10/06 00:05:39;;;;;;;2.87;1.87;;;;;;;17.59;71.13;100981.91;5021451;28;20195;-80
2022/10/06 00:08:07;;;;;;;3.00;2.07;;;;;;;17.60;71.06;100994.41;5019696;28;20218;-79
2022/10/06 00:10:34;;;;;;;2.83;2.37;;;;;;;17.63;71.09;101002.22;5032034;28;20214;-79
2022/10/06 00:13:00;;;;;;;3.87;2.40;;;;;;;17.63;70.95;101004.91;5027737;28;20216;-78
2022/10/06 00:15:30;;;;;;;5.50;2.57;;;;;;;17.62;71.08;101000.50;5033313;28;20238;-79
2022/10/06 00:17:57;;;;;;;3.07;2.13;;;;;;;17.63;71.06;101001.34;5032964;28;20202;-80
2022/10/06 00:20:25;;;;;;;5.60;3.23;;;;;;;17.64;70.98;101005.78;5032091;28;20553;-80
2022/10/06 00:22:52;;;;;;;4.97;2.23;;;;;;;17.67;70.94;101006.38;5029354;28;20207;-78
2022/10/06 00:25:22;;;;;;;3.00;2.00;;;;;;;17.69;70.80;101011.63;5026682;28;20196;-80
2022/10/06 00:27:51;;;;;;;2.73;1.60;;;;;;;17.68;70.75;101009.94;5030022;28;20218;-79
2022/10/06 00:30:21;;;;;;;1.80;1.60;;;;;;;17.68;70.99;101007.25;5022030;28;20215;-78
2022/10/06 00:32:51;;;;;;;1.77;1.63;;;;;;;17.67;71.10;101022.53;5025594;28;20210;-79
2022/10/06 00:35:17;;;;;;;2.83;1.50;;;;;;;17.65;71.07;101029.06;5026373;28;20226;-80
2022/10/06 00:37:44;;;;;;;2.67;1.80;;;;;;;17.63;71.46;101026.44;5034077;28;20630;-79
2022/10/06 00:40:11;;;;;;;3.93;2.47;;;;;;;17.64;71.23;101041.66;5030176;28;20204;-80
2022/10/06 00:42:53;;;;;;;3.63;2.03;;;;;;;17.61;70.88;101101.16;5027697;28;20204;-80
2022/10/06 00:45:25;;;;;;;0.53;0.30;;;;;;;17.50;68.62;101127.28;5030470;28;20203;-80
2022/10/06 00:47:53;;;;;;;2.53;0.60;;;;;;;17.24;68.84;101141.09;5026982;28;20215;-78
2022/10/06 00:50:20;;;;;;;0.70;0.30;;;;;;;17.00;68.51;101153.91;5030947;28;20210;-80
2022/10/06 00:52:46;;;;;;;1.23;0.23;;;;;;;16.75;69.09;101175.72;5030271;28;20235;-80
2022/10/06 00:55:13;;;;;;;0.63;0.20;;;;;;;16.45;70.20;101173.63;5023397;28;20229;-81
2022/10/06 00:57:41;;;;;;;0.10;0.10;;;;;;;16.24;71.16;101182.41;5027766;28;20582;-80
2022/10/06 01:00:11;;;;;;;1.60;0.20;;;;;;;16.08;72.08;101192.66;5028539;28;20216;-79
2022/10/06 01:02:42;;;;;;;0.10;0.10;;;;;;;15.92;73.25;101217.16;5033596;28;20195;-80
2022/10/06 01:05:11;;;;;;;0.20;0.20;;;;;;;15.77;74.34;101209.38;5026809;28;20448;-79
2022/10/06 01:07:38;;;;;;;0.30;0.20;;;;;;;15.60;74.41;101189.19;5025151;28;20227;-78
2022/10/06 01:10:05;;;;;;;0.20;0.20;;;;;;;15.46;74.82;101195.56;5017812;28;20207;-80
2022/10/06 01:12:33;;;;;;;2.00;0.40;;;;;;;15.37;75.50;101203.47;5021716;28;20218;-79
2022/10/06 01:15:00;;;;;;;0.20;0.20;;;;;;;15.27;75.70;101212.19;5027691;28;20238;-80
2022/10/06 01:17:34;;;;;;;0.60;0.40;;;;;;;15.15;76.44;101212.25;5031531;28;20210;-79
2022/10/06 01:20:07;;;;;;;1.17;0.20;;;;;;;15.04;76.58;101215.72;5028098;28;20210;-79
2022/10/06 01:22:37;;;;;;;0.40;0.20;;;;;;;14.96;76.64;101222.59;5027529;28;20608;-80
2022/10/06 01:25:06;;;;;;;1.37;0.57;;;;;;;14.90;76.14;101223.91;5030851;28;20225;-80
2022/10/06 01:27:34;;;;;;;1.17;0.20;;;;;;;14.83;76.41;101225.31;5025847;28;20206;-79
2022/10/06 01:30:02;;;;;;;1.23;0.20;;;;;;;14.78;75.92;101233.69;5024227;28;20664;-79
2022/10/06 01:32:34;;;;;;;0.67;0.20;;;;;;;14.73;76.39;101243.88;5025503;28;20658;-79
2022/10/06 01:35:03;;;;;;;0.87;0.17;;;;;;;14.72;76.68;101244.84;5028120;28;20229;-80
2022/10/06 01:37:29;;;;;;;0.93;0.13;;;;;;;14.71;76.18;101247.63;5021579;28;20199;-80
2022/10/06 01:39:57;;;;;;;0.83;0.20;;;;;;;14.65;76.29;101240.91;5026890;28;20203;-78
2022/10/06 01:42:24;;;;;;;0.90;0.30;;;;;;;14.62;76.67;101250.97;5027799;28;20206;-80
2022/10/06 01:44:53;;;;;;;1.37;0.33;;;;;;;14.61;76.67;101254.63;5029355;28;20257;-79
2022/10/06 01:47:20;;;;;;;2.00;0.70;;;;;;;14.57;76.96;101262.88;5021322;28;20214;-79
2022/10/06 01:49:46;;;;;;;2.03;0.50;;;;;;;14.57;76.94;101270.91;5021838;28;20199;-80
2022/10/06 01:52:13;;;;;;;1.23;0.50;;;;;;;14.56;77.31;101266.53;5022401;28;20742;-80
2022/10/06 01:54:39;;;;;;;1.03;0.53;;;;;;;14.53;77.13;101257.81;5023471;28;20233;-78
2022/10/06 01:57:08;;;;;;;0.90;0.77;;;;;;;14.51;77.58;101259.78;5023416;28;20221;-80
2022/10/06 01:59:34;;;;;;;1.57;0.97;;;;;;;14.48;77.66;101263.53;5026612;28;20240;-79
2022/10/06 02:02:01;;;;;;;1.43;0.93;;;;;;;14.43;77.80;101271.03;5021961;28;20602;-79
2022/10/06 02:04:28;;;;;;;2.00;1.20;;;;;;;14.40;77.93;101265.88;5025044;28;20238;-78
2022/10/06 02:06:55;;;;;;;3.10;1.07;;;;;;;14.37;77.99;101275.91;5024843;28;20199;-79
2022/10/06 02:09:21;;;;;;;1.83;0.90;;;;;;;14.32;78.17;101286.13;5023048;28;20210;-78
2022/10/06 02:11:48;;;;;;;2.10;1.10;;;;;;;14.29;78.29;101276.47;5023330;28;20314;-79
2022/10/06 02:14:16;;;;;;;1.80;1.00;;;;;;;14.25;78.09;101277.63;5022062;28;20225;-79
2022/10/06 02:16:43;;;;;;;1.83;0.73;;;;;;;14.23;77.91;101272.38;5026386;28;20222;-80
2022/10/06 02:19:10;;;;;;;2.87;0.93;;;;;;;14.23;77.67;101274.19;5018959;28;20207;-81
2022/10/06 02:21:37;;;;;;;1.33;0.63;;;;;;;14.21;77.84;101282.34;5028905;28;20209;-78
2022/10/06 02:24:04;;;;;;;2.53;1.10;;;;;;;14.20;77.41;101272.56;5022684;28;20233;-79
2022/10/06 02:26:31;;;;;;;3.30;1.20;;;;;;;14.17;77.24;101290.69;5021865;28;20214;-80
2022/10/06 02:28:58;;;;;;;1.63;0.90;;;;;;;14.17;77.46;101291.53;5023212;28;20234;-79
2022/10/06 02:31:25;;;;;;;2.03;0.80;;;;;;;14.16;77.38;101311.25;5024722;28;20217;-78
2022/10/06 02:33:52;;;;;;;1.07;0.77;;;;;;;14.13;77.52;101307.94;5024103;28;20245;-79
2022/10/06 02:36:18;;;;;;;1.97;1.00;;;;;;;14.13;77.96;101324.88;5023713;28;20226;-80
2022/10/06 02:38:45;;;;;;;3.47;1.10;;;;;;;14.15;77.84;101322.09;5022492;28;20207;-80
2022/10/06 02:41:11;;;;;;;4.53;1.23;;;;;;;14.13;77.98;101330.22;5023513;28;20245;-79
2022/10/06 02:43:38;;;;;;;3.10;1.23;;;;;;;14.14;77.96;101348.03;5023818;28;20248;-80
2022/10/06 02:46:07;;;;;;;3.57;1.03;;;;;;;14.14;78.30;101341.81;5019796;28;20207;-79
2022/10/06 02:48:35;;;;;;;4.07;0.93;;;;;;;14.15;78.13;101355.06;5025343;28;20668;-80
2022/10/06 02:51:05;;;;;;;2.13;0.70;;;;;;;14.17;78.37;101357.66;5023905;28;20214;-78
2022/10/06 02:53:33;;;;;;;2.63;1.10;;;;;;;14.14;78.25;101364.09;5025446;28;20256;-80
2022/10/06 02:56:00;;;;;;;2.43;1.03;;;;;;;14.13;78.72;101372.22;5020014;28;20232;-81
2022/10/06 02:58:28;;;;;;;1.07;0.57;;;;;;;14.11;79.20;101376.84;5024565;28;20210;-81
2022/10/06 03:00:55;;;;;;;2.40;0.50;;;;;;;14.11;78.99;101379.50;5023529;28;20212;-80
2022/10/06 03:03:21;;;;;;;3.07;0.60;;;;;;;14.09;79.22;101389.47;5023727;28;20634;-78
2022/10/06 03:05:49;;;;;;;3.80;0.90;;;;;;;14.04;79.40;101384.41;5017786;28;20203;-80
2022/10/06 03:08:15;;;;;;;1.53;0.50;;;;;;;14.04;79.50;101388.91;5019198;28;20646;-80
2022/10/06 03:10:42;;;;;;;1.87;0.90;;;;;;;14.01;79.44;101383.75;5023595;28;20703;-80
2022/10/06 03:13:08;;;;;;;2.63;0.60;;;;;;;13.99;79.50;101399.03;5018379;28;20233;-80
2022/10/06 03:15:35;;;;;;;1.63;0.60;;;;;;;13.95;79.64;101394.88;5027475;28;20222;-79
2022/10/06 03:18:01;;;;;;;3.17;0.70;;;;;;;13.93;80.08;101404.81;5018692;28;20211;-78
2022/10/06 03:20:28;;;;;;;2.57;1.00;;;;;;;13.88;79.93;101416.69;5018249;28;20214;-79
2022/10/06 03:22:55;;;;;;;3.87;0.90;;;;;;;13.86;80.02;101421.28;5019596;28;20199;-80
2022/10/06 03:25:22;;;;;;;4.83;1.30;;;;;;;13.83;80.05;101421.47;5018632;28;20891;-80
2022/10/06 03:27:48;;;;;;;4.97;0.90;;;;;;;13.79;79.99;101414.59;5019378;28;20214;-81
2022/10/06 03:30:15;;;;;;;2.43;0.90;;;;;;;13.78;79.96;101425.44;5023190;28;20207;-80
2022/10/06 03:32:41;;;;;;;3.57;1.03;;;;;;;13.73;80.34;101436.41;5025677;28;20268;-78
2022/10/06 03:35:08;;;;;;;3.50;1.00;;;;;;;13.67;80.51;101427.91;5021170;28;20310;-79
2022/10/06 03:37:35;;;;;;;10.93;1.27;;;;;;;13.63;80.39;101427.25;5023507;28;20218;-78
2022/10/06 03:40:03;;;;;;;3.50;1.00;;;;;;;13.61;80.61;101439.91;5021229;28;20222;-78
2022/10/06 03:42:31;;;;;;;2.83;0.90;;;;;;;13.57;80.39;101438.34;5019187;28;20653;-79
2022/10/06 03:44:57;;;;;;;2.93;0.83;;;;;;;13.55;80.58;101437.59;5025428;28;20222;-79
2022/10/06 03:47:23;;;;;;;4.33;1.00;;;;;;;13.53;80.16;101432.34;5027051;28;20199;-80
2022/10/06 03:49:50;;;;;;;5.67;1.10;;;;;;;13.50;80.21;101445.03;5027974;28;20203;-80
2022/10/06 03:52:16;;;;;;;4.23;1.37;;;;;;;13.46;80.47;101443.50;5028054;28;20214;-79
2022/10/06 03:54:44;;;;;;;3.23;1.10;;;;;;;13.46;80.57;101464.91;5021138;28;20230;-80
2022/10/06 03:57:11;;;;;;;3.80;0.83;;;;;;;13.43;80.37;101462.47;5022187;28;20257;-79
2022/10/06 03:59:38;;;;;;;3.83;0.87;;;;;;;13.41;80.13;101469.72;5030612;28;20683;-79
2022/10/06 04:02:04;;;;;;;7.20;1.20;;;;;;;13.39;80.26;101468.94;5031757;28;21261;-79
2022/10/06 04:04:31;;;;;;;1.97;0.70;;;;;;;13.38;80.46;101478.78;5028036;28;20249;-80
2022/10/06 04:06:58;;;;;;;2.83;0.93;;;;;;;13.35;80.38;101487.00;5028423;28;20214;-79
2022/10/06 04:09:24;;;;;;;4.23;1.23;;;;;;;13.33;80.54;101480.88;5024408;28;20214;-80
2022/10/06 04:11:51;;;;;;;4.87;1.30;;;;;;;13.33;80.60;101491.59;5027738;28;20210;-79
2022/10/06 04:14:19;;;;;;;6.33;1.10;;;;;;;13.32;80.66;101499.69;5027039;28;20712;-77
2022/10/06 04:16:47;;;;;;;5.97;1.00;;;;;;;13.30;80.80;101509.63;5026323;28;20302;-80
2022/10/06 04:19:15;;;;;;;3.10;1.33;;;;;;;13.30;80.52;101514.97;5026608;28;20564;-80
2022/10/06 04:21:43;;;;;;;4.03;1.17;;;;;;;13.27;80.67;101516.03;5026371;28;20671;-79
2022/10/06 04:24:10;;;;;;;3.60;1.33;;;;;;;13.27;80.63;101512.47;5030932;28;20222;-80
2022/10/06 04:26:39;;;;;;;6.90;1.97;;;;;;;13.27;80.41;101515.16;5029944;28;20202;-79
2022/10/06 04:29:06;;;;;;;6.10;1.83;;;;;;;13.26;80.21;101527.69;5031948;28;20683;-79
2022/10/06 04:31:36;;;;;;;5.43;1.00;;;;;;;13.28;79.96;101519.56;5028126;28;20602;-80
2022/10/06 04:34:03;;;;;;;5.30;1.33;;;;;;;13.28;79.48;101532.94;5023613;28;20644;-79
2022/10/06 04:36:32;;;;;;;5.03;1.37;;;;;;;13.28;79.93;101538.28;5029828;28;20232;-80
2022/10/06 04:39:01;;;;;;;6.90;1.70;;;;;;;13.27;79.84;101536.56;5044632;28;20644;-80
2022/10/06 04:41:30;;;;;;;6.87;1.80;;;;;;;13.26;79.70;101537.50;5026082;28;20404;-79
2022/10/06 04:43:57;;;;;;;4.63;1.60;;;;;;;13.26;79.70;101550.88;5025814;28;20589;-79
2022/10/06 04:46:24;;;;;;;5.03;1.77;;;;;;;13.25;79.63;101544.72;5025505;28;20556;-79
2022/10/06 04:48:53;;;;;;;3.93;1.80;;;;;;;13.24;79.39;101556.38;5030489;28;20209;-80
2022/10/06 04:51:21;;;;;;;5.63;2.40;;;;;;;13.24;79.49;101566.19;5024629;28;20232;-77
2022/10/06 04:53:48;;;;;;;6.23;2.27;;;;;;;13.24;79.57;101566.19;5026275;28;20254;-80
2022/10/06 04:56:17;;;;;;;5.00;2.17;;;;;;;13.23;79.73;101580.53;5022846;28;20237;-77
2022/10/06 04:58:46;;;;;;;5.10;2.13;;;;;;;13.22;79.59;101571.63;5022431;28;20210;-79
2022/10/06 05:01:16;;;;;;;5.20;2.43;;;;;;;13.24;80.03;101579.56;5024152;28;20519;-80
2022/10/06 05:03:44;;;;;;;6.60;2.30;;;;;;;13.23;80.03;101594.75;5034301;28;20752;-80
2022/10/06 05:06:16;;;;;;;5.10;2.40;;;;;;;13.22;80.58;101593.03;5026677;28;20225;-80
2022/10/06 05:08:43;;;;;;;7.30;2.50;;;;;;;13.24;80.80;101606.31;5027388;28;20210;-79
2022/10/06 05:11:11;;;;;;;7.17;2.30;;;;;;;13.23;80.50;101615.31;5023748;28;20770;-79
2022/10/06 05:13:39;;;;;;;4.70;1.90;;;;;;;13.21;80.93;101626.09;5024808;28;20306;-78
2022/10/06 05:16:07;;;;;;;6.03;1.70;;;;;;;13.22;80.91;101618.94;5027498;28;20206;-80
2022/10/06 05:18:35;;;;;;;3.50;1.60;;;;;;;13.20;80.51;101625.22;5024862;28;20214;-80
2022/10/06 05:21:03;;;;;;;5.50;1.87;;;;;;;13.21;80.36;101639.47;5024799;28;20203;-79
2022/10/06 05:23:33;;;;;;;3.30;1.50;;;;;;;13.20;80.73;101633.25;5018981;28;21635;-80
2022/10/06 05:26:00;;;;;;;4.77;1.50;;;;;;;13.22;80.73;101634.97;5018458;28;20577;-80
2022/10/06 05:28:29;;;;;;;7.03;1.70;;;;;;;13.22;80.56;101656.38;5017333;28;20206;-79
2022/10/06 05:30:57;;;;;;;5.63;1.40;;;;;;;13.21;80.22;101658.19;5025302;28;20253;-79
2022/10/06 05:33:25;;;;;;;3.07;1.10;;;;;;;13.22;80.27;101661.72;5021424;28;20233;-80
2022/10/06 05:35:52;;;;;;;5.80;1.67;;;;;;;13.22;79.89;101667.06;5026982;28;20199;-79
2022/10/06 05:38:18;;;;;;;7.27;1.53;;;;;;;13.23;80.36;101679.50;5026780;28;20986;-79
2022/10/06 05:40:46;;;;;;;5.97;1.67;;;;;;;13.22;80.20;101678.63;5024302;28;20209;-79
2022/10/06 05:43:13;;;;;;;8.70;1.73;;;;;;;13.24;80.02;101699.94;5028483;28;20234;-80
2022/10/06 05:45:39;;;;;;;5.70;1.50;;;;;;;13.23;80.19;101692.88;5028911;28;20570;-80
2022/10/06 05:48:06;;;;;;;6.73;1.67;;;;;;;13.26;80.08;101700.69;5034772;28;20204;-79
2022/10/06 05:50:32;;;;;;;4.47;1.30;;;;;;;13.27;80.09;101707.78;5009073;28;20718;-79
2022/10/06 05:52:58;;;;;;;3.30;1.30;;;;;;;13.26;79.98;101714.94;5022685;28;20203;-80
2022/10/06 05:55:25;;;;;;;6.23;1.40;;;;;;;13.29;79.54;101716.56;5030096;28;20213;-79
2022/10/06 05:57:55;;;;;;;2.60;1.33;;;;;;;13.28;79.43;101729.09;5027462;28;20307;-79
2022/10/06 06:00:21;;;;;;;5.77;1.30;;;;;;;13.27;79.33;101731.84;5022287;28;20593;-78
2022/10/06 06:02:48;;;;;;;3.67;1.23;;;;;;;13.27;78.59;101743.41;5023017;28;20701;-78
2022/10/06 06:05:14;;;;;;;5.23;1.10;;;;;;;13.27;78.12;101738.06;5038000;28;20198;-79
2022/10/06 06:07:41;;;;;;;6.77;1.20;;;;;;;13.27;77.88;101758.59;5028370;28;20210;-80
2022/10/06 06:10:08;;;;;;;7.30;1.57;;;;;;;13.28;77.82;101754.97;5040257;28;20209;-79
2022/10/06 06:12:35;;;;;;;5.70;1.53;;;;;;;13.28;77.44;101757.66;5038716;28;20204;-79
2022/10/06 06:17:47;;;;;;;7.33;1.77;;;;;;;13.30;76.71;101763.78;5039500;28;20231;-80
2022/10/06 06:20:14;;;;;;;4.80;1.40;;;;;;;13.30;76.14;101767.31;5029430;28;20210;-79
2022/10/06 06:22:40;;;;;;;7.63;1.40;;;;;;;13.31;76.05;101765.50;5030192;28;20202;-79
2022/10/06 06:25:07;;;;;;;5.30;1.03;;;;;;;13.30;75.78;101766.47;5028704;28;20226;-79
2022/10/06 06:27:34;;;;;;;6.73;1.40;;;;;;;13.30;75.68;101771.81;5030410;28;20206;-79
2022/10/06 06:30:00;;;;;;;5.97;1.27;;;;;;;13.30;75.50;101770.00;5035259;28;20683;-79
2022/10/06 06:32:28;;;;;;;4.70;1.30;;;;;;;13.26;75.05;101771.13;5032722;28;20206;-79
2022/10/06 06:34:55;;;;;;;7.17;1.33;;;;;;;13.26;75.09;101786.31;5041172;28;20859;-79
2022/10/06 06:37:21;;;;;;;4.30;1.20;;;;;;;13.23;74.36;101794.53;5037941;28;20676;-79
2022/10/06 06:39:48;;;;;;;4.17;1.30;;;;;;;13.22;74.51;101791.00;5028595;28;20205;-79
2022/10/06 06:42:14;;;;;;;6.80;1.57;;;;;;;13.20;74.05;101796.44;5028894;28;20198;-80
2022/10/06 06:44:40;;;;;;;12.40;1.50;;;;;;;13.21;73.72;101802.66;5039033;28;20229;-79
2022/10/06 06:47:08;;;;;;;6.83;1.43;;;;;;;13.19;73.87;101802.72;5032281;28;20672;-79
2022/10/06 06:49:36;;;;;;;5.80;1.30;;;;;;;13.21;73.76;101805.31;5035445;28;20218;-80
2022/10/06 06:52:03;;;;;;;4.83;1.43;;;;;;;13.20;73.69;101811.63;5034214;28;20202;-79
2022/10/06 06:54:30;;;;;;;8.17;1.73;;;;;;;13.21;73.41;101816.00;5033022;28;20226;-79
2022/10/06 06:56:56;;;;;;;6.77;1.73;;;;;;;13.24;73.38;101825.69;5036252;28;20225;-79
2022/10/06 06:59:24;;;;;;;6.57;1.97;;;;;;;13.24;73.43;101831.91;5031136;28;20230;-80
2022/10/06 07:01:50;;;;;;;5.37;1.37;;;;;;;13.25;73.30;101824.75;5031344;28;20198;-79
2022/10/06 07:04:17;;;;;;;5.57;1.70;;;;;;;13.26;73.44;101837.13;5029918;28;20230;-79
2022/10/06 07:06:55;;;;;;;9.47;2.07;;;;;;;13.29;73.30;101840.50;5038050;28;20209;-79
2022/10/06 07:09:22;;;;;;;5.80;1.90;;;;;;;13.29;73.35;101850.34;5026716;28;20267;-79
2022/10/06 07:11:49;;;;;;;5.53;2.00;;;;;;;13.31;73.71;101853.81;5039834;28;20205;-79
2022/10/06 07:14:17;;;;;;;8.60;2.23;;;;;;;13.32;73.46;101853.72;5026274;28;20312;-79
2022/10/06 07:25:10;;;;;;;9.07;2.10;;;;;;;13.45;73.63;101886.00;5035956;28;20237;-80
2022/10/06 07:27:39;;;;;;;6.80;1.90;;;;;;;13.48;73.80;101889.38;5036504;28;20209;-80
2022/10/06 07:30:08;;;;;;;9.33;1.83;;;;;;;13.51;73.46;101893.72;5032870;28;20595;-80
2022/10/06 07:32:36;;;;;;;8.23;1.60;;;;;;;13.57;73.15;101887.16;5035668;28;20202;-80
2022/10/06 07:35:05;;;;;;;5.23;1.70;;;;;;;13.61;73.25;101907.44;5048589;28;20230;-80
2022/10/06 07:37:35;;;;;;;10.33;2.30;;;;;;;13.67;73.36;101910.63;5038142;28;20313;-79
2022/10/06 07:40:04;;;;;;;8.97;2.00;;;;;;;13.73;73.31;101912.97;5041307;28;20651;-79
2022/10/06 07:42:46;;;;;;;5.77;1.47;;;;;;;13.80;72.71;101916.16;5040246;28;20225;-79
2022/10/06 07:47:58;;;;;;;7.47;1.70;;;;;;;13.94;72.11;101920.75;5043013;28;20212;-79
2022/10/06 07:50:25;;;;;;;6.57;1.93;;;;;;;14.00;71.56;101933.75;5034058;28;20260;-79
2022/10/06 07:52:53;;;;;;;4.83;1.37;;;;;;;14.10;71.73;101934.97;5039960;28;20205;-79
2022/10/06 07:55:19;;;;;;;7.77;1.40;;;;;;;14.19;70.90;101939.78;5029395;28;20222;-79
2022/10/06 07:57:46;;;;;;;5.97;1.40;;;;;;;14.27;70.59;101940.22;5042036;28;20229;-79
2022/10/06 08:00:14;;;;;;;10.87;2.37;;;;;;;14.36;70.64;101936.13;5029455;28;20818;-79
2022/10/06 08:02:41;;;;;;;8.83;1.50;;;;;;;14.41;69.35;101948.34;5037008;28;20237;-79
2022/10/06 08:05:08;;;;;;;6.63;1.53;;;;;;;14.49;69.23;101950.59;5041171;28;20338;-79
2022/10/06 08:07:35;;;;;;;8.07;1.70;;;;;;;14.54;68.56;101946.66;5034176;28;20214;-79
2022/10/06 08:10:03;;;;;;;7.70;1.97;;;;;;;14.62;68.58;101950.72;5037412;28;20201;-79
2022/10/06 08:12:32;;;;;;;6.77;1.50;;;;;;;14.69;68.50;101955.59;5038952;28;20222;-79
2022/10/06 08:15:01;;;;;;;8.17;2.73;;;;;;;14.75;68.10;101967.78;5036819;28;20625;-79
2022/10/06 08:17:28;;;;;;;5.93;1.47;;;;;;;14.81;68.23;101965.63;5033752;28;20230;-79
2022/10/06 08:19:54;;;;;;;4.87;1.20;;;;;;;14.89;67.98;101966.00;5027450;28;20225;-80
2022/10/06 08:22:26;;;;;;;6.77;1.33;;;;;;;14.93;67.61;101970.22;5024493;28;20209;-79
2022/10/06 08:24:53;;;;;;;6.03;1.50;;;;;;;14.92;67.13;101984.59;5033196;28;20224;-80
2022/10/06 08:27:22;;;;;;;8.00;1.30;;;;;;;14.94;66.59;101985.38;5034384;28;20219;-79
2022/10/06 08:29:48;;;;;;;6.43;1.40;;;;;;;14.99;66.39;101986.91;5038569;28;20627;-79
2022/10/06 08:32:16;;;;;;;7.47;1.73;;;;;;;15.02;66.32;101987.59;5028506;28;20217;-79
2022/10/06 08:34:42;;;;;;;3.27;1.50;;;;;;;15.09;66.55;101994.31;5035343;28;20668;-79
2022/10/06 08:37:09;;;;;;;9.40;1.50;;;;;;;15.13;66.15;101997.66;5037048;28;20202;-79
2022/10/06 08:39:35;;;;;;;6.80;1.47;;;;;;;15.16;66.06;102006.41;5044419;28;20217;-79
2022/10/06 08:42:02;;;;;;;5.20;1.50;;;;;;;15.24;66.06;102005.91;5038927;28;20211;-80
2022/10/06 08:44:35;;;;;;;5.23;1.20;;;;;;;15.27;65.58;102006.59;5042821;28;20230;-79
2022/10/06 08:47:04;;;;;;;8.77;1.80;;;;;;;15.33;65.33;102012.56;5039847;28;20294;-79
2022/10/06 08:49:37;;;;;;;8.27;1.50;;;;;;;15.33;64.88;102015.22;5038204;28;20210;-79
2022/10/06 08:52:15;;;;;;;8.60;1.80;;;;;;;15.40;65.09;102003.19;5032568;28;20199;-79
2022/10/06 08:54:51;;;;;;;10.33;2.30;;;;;;;15.47;64.69;102018.78;5035420;28;20234;-79
2022/10/06 08:57:20;;;;;;;8.03;1.70;;;;;;;15.55;64.56;102010.28;5042574;28;20204;-79
2022/10/06 08:59:51;;;;;;;8.13;2.40;;;;;;;15.67;64.41;102017.56;5036386;28;20200;-79
2022/10/06 09:02:27;;;;;;;8.13;1.63;;;;;;;15.74;63.90;102007.31;5037754;28;20250;-79
2022/10/06 09:04:56;;;;;;;6.90;1.40;;;;;;;15.80;63.01;102007.78;5036861;28;20247;-79
2022/10/06 09:07:28;;;;;;;8.03;1.87;;;;;;;15.87;63.18;102016.31;5035474;28;20274;-79
2022/10/06 09:10:08;;;;;;;6.40;1.63;;;;;;;15.93;62.60;102027.53;5036251;28;20279;-79
2022/10/06 09:12:40;;;;;;;6.23;1.43;;;;;;;15.98;61.64;102022.72;5033531;28;20224;-80
2022/10/06 09:15:27;;;;;;;11.43;1.50;;;;;;;16.04;61.49;102021.47;5039135;28;20222;-79
2022/10/06 09:17:59;;;;;;;6.10;2.00;;;;;;;16.10;61.43;102029.16;5035317;28;20228;-79
2022/10/06 09:20:32;;;;;;;5.00;2.13;;;;;;;16.19;61.58;102028.53;5035188;28;20204;-79
2022/10/06 09:23:01;;;;;;;4.80;1.63;;;;;;;16.28;61.28;102027.97;5038342;28;20208;-79
2022/10/06 09:25:29;;;;;;;9.27;2.07;;;;;;;16.39;60.68;102038.00;5033934;28;20213;-79
2022/10/06 09:27:58;;;;;;;9.50;2.00;;;;;;;16.47;60.45;102046.44;5037095;28;20202;-80
2022/10/06 09:30:26;;;;;;;7.73;1.83;;;;;;;16.55;59.95;102046.78;5028515;28;20217;-80
2022/10/06 09:32:58;;;;;;;6.60;1.50;;;;;;;16.59;59.13;102058.19;5041400;28;20691;-80
2022/10/06 09:35:27;;;;;;;10.00;1.77;;;;;;;16.55;58.74;102049.47;5035067;28;20208;-80
2022/10/06 09:37:56;;;;;;;4.40;1.53;;;;;;;16.52;58.83;102057.72;5033228;28;20225;-79
2022/10/06 09:40:34;;;;;;;4.97;1.77;;;;;;;16.52;59.18;102052.34;5039823;28;20241;-80
2022/10/06 09:43:02;;;;;;;7.53;1.40;;;;;;;16.53;58.83;102054.06;5030461;28;20204;-79
2022/10/06 09:45:30;;;;;;;6.43;1.70;;;;;;;16.56;58.40;102059.25;5037656;28;20205;-79
2022/10/06 09:48:12;;;;;;;2.63;0.90;;;;;;;16.57;58.02;102055.59;5041174;28;20193;-79
2022/10/06 09:50:39;;;;;;;7.37;1.70;;;;;;;16.57;57.54;102066.38;5031471;28;20244;-79
2022/10/06 09:53:15;;;;;;;6.77;1.57;;;;;;;16.63;57.83;102074.06;5037387;28;20274;-79
2022/10/06 09:55:45;;;;;;;6.13;1.60;;;;;;;16.75;57.82;102063.44;5023396;28;20204;-79
2022/10/06 09:58:20;;;;;;;10.67;1.70;;;;;;;16.83;57.69;102064.69;5025259;28;20245;-79
2022/10/06 10:00:53;;;;;;;4.63;1.10;;;;;;;16.87;56.90;102068.00;5029729;28;20673;-79
2022/10/06 10:03:20;;;;;;;7.03;1.47;;;;;;;16.96;56.69;102067.38;5027038;28;20236;-79
2022/10/06 10:05:49;;;;;;;8.20;1.70;;;;;;;17.02;55.96;102065.13;5028871;28;20802;-80
2022/10/06 10:08:26;;;;;;;4.53;1.30;;;;;;;17.05;55.34;102063.19;5029540;28;20286;-79
2022/10/06 10:12:23;;;;;;;5.40;1.20;;;;;;;17.08;55.04;102066.53;5029895;28;20211;-79
2022/10/06 10:14:02;;;;;;;6.17;1.60;;;;;;;17.08;53.74;102084.53;5021338;28;20313;-79
2022/10/06 10:16:35;;;;;;;4.30;1.10;;;;;;;17.10;53.62;102070.00;5022341;28;20207;-79
2022/10/06 10:19:05;;;;;;;4.20;0.97;;;;;;;17.10;52.72;102091.53;5019790;28;20233;-80
2022/10/06 10:21:34;;;;;;;5.23;1.30;;;;;;;17.07;52.50;102091.75;5029386;28;20211;-79
2022/10/06 10:24:05;;;;;;;5.50;1.40;;;;;;;17.05;51.78;102087.41;5030438;28;20257;-79
2022/10/06 10:26:43;;;;;;;4.53;1.27;;;;;;;17.08;52.23;102089.91;5024823;28;20268;-79
2022/10/06 10:29:46;;;;;;;6.10;1.47;;;;;;;17.16;52.74;102088.44;5032623;28;20207;-79
2022/10/06 10:32:19;;;;;;;5.10;1.47;;;;;;;17.23;52.53;102072.69;5034294;28;20201;-79
2022/10/06 10:35:03;;;;;;;9.27;1.63;;;;;;;17.30;52.27;102088.34;5033496;28;20227;-79
2022/10/06 10:37:43;;;;;;;5.97;1.50;;;;;;;17.36;51.52;102092.47;5035530;28;20588;-79
2022/10/06 10:40:23;;;;;;;4.27;1.30;;;;;;;17.39;51.56;102085.97;5028116;28;20675;-79
2022/10/06 10:43:06;;;;;;;8.83;1.97;;;;;;;17.46;51.19;102089.97;5027911;28;20217;-79
2022/10/06 10:45:34;;;;;;;3.73;1.13;;;;;;;17.45;50.75;102093.63;5032183;28;20210;-79
2022/10/06 10:48:11;;;;;;;4.53;1.37;;;;;;;17.48;50.61;102085.34;5034882;28;20612;-79
2022/10/06 10:50:51;;;;;;;6.30;0.90;;;;;;;17.50;50.48;102088.81;5032854;28;20579;-79
2022/10/06 10:53:25;;;;;;;3.67;1.00;;;;;;;17.52;49.85;102092.25;5032342;28;20716;-79
2022/10/06 10:55:59;;;;;;;8.87;1.53;;;;;;;17.49;49.64;102081.69;5032090;28;20226;-79
2022/10/06 10:58:31;;;;;;;4.80;1.20;;;;;;;17.55;50.17;102089.34;5034808;28;20233;-80
2022/10/06 11:01:10;;;;;;;3.87;1.30;;;;;;;17.61;49.62;102083.50;5037936;28;20571;-79
2022/10/06 11:03:38;;;;;;;5.07;0.90;;;;;;;17.65;49.35;102083.22;5033467;28;20237;-79
2022/10/06 11:06:32;;;;;;;4.33;1.03;;;;;;;17.73;49.34;102089.94;5035114;28;20203;-79
2022/10/06 11:09:03;;;;;;;2.90;1.10;;;;;;;17.76;49.25;102090.53;5030594;28;20207;-79
2022/10/06 11:11:45;;;;;;;5.60;1.10;;;;;;;17.80;49.00;102091.19;5029185;28;20220;-80
2022/10/06 11:14:26;;;;;;;4.53;1.40;;;;;;;17.81;48.76;102096.47;5027814;28;20306;-79
2022/10/06 11:17:00;;;;;;;4.77;1.57;;;;;;;17.75;47.96;102088.81;5035476;28;20233;-79
2022/10/06 11:19:42;;;;;;;4.27;0.90;;;;;;;17.72;48.08;102083.69;5038902;28;20592;-80
2022/10/06 11:22:14;;;;;;;3.80;0.77;;;;;;;17.59;47.08;102089.00;5036798;28;20206;-79
2022/10/06 11:24:48;;;;;;;5.73;1.00;;;;;;;17.51;47.17;102094.09;5032855;28;20230;-79
2022/10/06 11:27:40;;;;;;;4.40;1.10;;;;;;;17.48;47.55;102096.13;5033058;28;20206;-79
2022/10/06 11:30:15;;;;;;;6.53;1.30;;;;;;;17.49;47.89;102084.38;5032785;28;20226;-79
2022/10/06 11:32:55;;;;;;;5.03;1.40;;;;;;;17.50;48.30;102096.88;5036942;28;20266;-79
2022/10/06 11:35:25;;;;;;;3.83;1.10;;;;;;;17.50;48.10;102097.75;5038414;28;20202;-79
2022/10/06 11:38:00;;;;;;;5.10;1.00;;;;;;;17.51;48.84;102101.31;5035326;28;20270;-79
2022/10/06 11:40:47;;;;;;;5.23;0.90;;;;;;;17.52;49.06;102097.66;5039060;28;20199;-80
2022/10/06 11:43:22;;;;;;;5.53;1.27;;;;;;;17.53;49.36;102104.75;5029759;28;20287;-79
2022/10/06 11:45:59;;;;;;;5.27;1.20;;;;;;;17.53;49.14;102102.94;5035070;28;20560;-79
2022/10/06 11:48:28;;;;;;;6.90;1.13;;;;;;;17.55;49.45;102108.22;5039900;28;20208;-80